Time;durP1;ratioP1;P1;durP2;ratioP2;P2;SDS_P1;SDS_P2;PMS_P1;PMS_P2;Temp;Humidity;BMP_temperature;BMP_pressure;BME280_temperature;BME280_humidity;BME280_pressure;Samples;Min_cycle;Max_cycle;Signal;HPM_P1;HPM_P2
2021/04/30 00:00:22;;;;;;;2.92;1.88;;;18.00;51.60;;;;;;5075024;28;20186;-69
2021/04/30 00:02:47;;;;;;;1.98;1.77;;;18.00;51.70;;;;;;5074019;28;20181;-66
2021/04/30 00:05:13;;;;;;;2.22;1.60;;;18.00;51.70;;;;;;5074849;28;20179;-74
2021/04/30 00:07:39;;;;;;;2.38;1.88;;;18.00;51.70;;;;;;5074582;28;20174;-67
2021/04/30 00:10:05;;;;;;;2.00;1.80;;;18.00;51.70;;;;;;5039609;28;20175;-70
2021/04/30 00:12:30;;;;;;;2.47;1.90;;;17.90;51.60;;;;;;5056794;28;20171;-68
2021/04/30 00:14:56;;;;;;;2.00;1.90;;;18.00;51.70;;;;;;5074604;28;20689;-71
2021/04/30 00:17:22;;;;;;;2.38;1.80;;;17.90;51.60;;;;;;5056434;28;20169;-68
2021/04/30 00:19:47;;;;;;;2.28;1.65;;;17.90;51.70;;;;;;5074385;28;20170;-71
2021/04/30 00:22:13;;;;;;;2.65;1.90;;;17.90;51.70;;;;;;5074553;28;20536;-67
2021/04/30 00:24:39;;;;;;;2.17;1.98;;;17.90;51.70;;;;;;5055738;28;20242;-72
2021/04/30 00:27:05;;;;;;;2.13;1.92;;;17.90;51.70;;;;;;5056495;28;20288;-67
2021/04/30 00:29:30;;;;;;;2.17;1.98;;;17.90;51.70;;;;;;5056174;28;20634;-65
2021/04/30 00:31:56;;;;;;;2.50;1.92;;;17.90;51.70;;;;;;5073598;28;20218;-66
2021/04/30 00:34:22;;;;;;;2.53;1.98;;;17.90;51.70;;;;;;5074184;28;20258;-65
2021/04/30 00:36:47;;;;;;;2.30;1.83;;;17.90;51.70;;;;;;5055588;28;20171;-70
2021/04/30 00:39:13;;;;;;;2.97;1.88;;;17.90;51.70;;;;;;5074266;28;20543;-69
2021/04/30 00:41:39;;;;;;;2.20;2.00;;;17.80;51.70;;;;;;5055955;28;20622;-71
2021/04/30 00:44:06;;;;;;;2.25;1.92;;;17.80;51.60;;;;;;5055543;28;20175;-67
2021/04/30 00:46:32;;;;;;;2.95;1.77;;;17.80;51.70;;;;;;5056101;28;20240;-66
2021/04/30 00:48:57;;;;;;;1.90;1.75;;;17.80;51.70;;;;;;5039370;28;20678;-67
2021/04/30 00:51:23;;;;;;;2.75;1.90;;;17.80;51.70;;;;;;5038948;28;20265;-66
2021/04/30 00:53:48;;;;;;;2.88;2.10;;;17.80;51.60;;;;;;5055769;28;20170;-71
2021/04/30 00:56:15;;;;;;;2.25;1.80;;;17.80;51.70;;;;;;5056114;28;20513;-67
2021/04/30 00:58:40;;;;;;;3.65;2.00;;;17.80;51.70;;;;;;5055102;28;20190;-67
2021/04/30 01:01:06;;;;;;;3.08;2.00;;;17.80;51.70;;;;;;5055857;28;20167;-68
2021/04/30 01:03:32;;;;;;;2.53;2.00;;;17.80;51.70;;;;;;5073439;28;20191;-73
2021/04/30 01:05:57;;;;;;;3.08;1.92;;;17.80;51.80;;;;;;5055028;28;20166;-75
2021/04/30 01:08:23;;;;;;;2.17;1.98;;;17.80;51.70;;;;;;5073777;28;20237;-67
2021/04/30 01:10:48;;;;;;;2.08;1.80;;;17.80;51.70;;;;;;5055516;28;20182;-67
2021/04/30 01:13:14;;;;;;;1.95;1.80;;;17.80;52.30;;;;;;5055064;28;20167;-67
2021/04/30 01:15:40;;;;;;;2.42;2.17;;;17.70;51.70;;;;;;5055425;28;20162;-67
2021/04/30 01:18:05;;;;;;;1.70;1.60;;;17.70;51.80;;;;;;5055549;28;20166;-68
2021/04/30 01:20:31;;;;;;;2.28;2.03;;;17.70;51.80;;;;;;5054825;28;20174;-72
2021/04/30 01:22:56;;;;;;;2.20;1.70;;;17.70;51.70;;;;;;5038990;28;20747;-69
2021/04/30 01:25:24;;;;;;;3.10;1.95;;;17.70;51.70;;;;;;5055627;28;20245;-69
2021/04/30 01:27:50;;;;;;;2.08;1.88;;;17.70;51.70;;;;;;5054434;28;20201;-67
2021/04/30 01:30:26;;;;;;;2.30;1.67;;;17.70;52.30;;;;;;5055249;28;20227;-66
2021/04/30 01:32:52;;;;;;;2.63;1.90;;;17.70;51.70;;;;;;5054622;28;20173;-64
2021/04/30 01:35:20;;;;;;;3.42;2.00;;;17.70;51.70;;;;;;5055289;28;20170;-64
2021/04/30 02:01:20;;;;;;;2.20;1.80;;;17.60;51.70;;;;;;5072813;28;20220;-66
2021/04/30 02:03:45;;;;;;;1.85;1.73;;;17.60;51.70;;;;;;5052235;28;20185;-69
2021/04/30 02:06:11;;;;;;;2.25;2.00;;;17.60;51.70;;;;;;5054828;28;20556;-66
2021/04/30 02:08:36;;;;;;;2.30;2.10;;;17.60;51.70;;;;;;5037530;28;20229;-66
2021/04/30 02:11:03;;;;;;;2.10;1.80;;;17.60;51.70;;;;;;5072665;28;20205;-66
2021/04/30 02:13:28;;;;;;;2.20;2.00;;;17.60;51.70;;;;;;5072498;28;20170;-66
2021/04/30 02:15:54;;;;;;;2.72;2.00;;;17.60;51.70;;;;;;5054245;28;20534;-67
2021/04/30 02:18:20;;;;;;;3.35;1.83;;;17.60;51.70;;;;;;5072906;28;20174;-71
2021/04/30 02:20:46;;;;;;;2.13;1.92;;;17.60;51.70;;;;;;5054662;28;20618;-67
2021/04/30 02:23:11;;;;;;;3.60;2.33;;;17.60;51.70;;;;;;5054184;28;20257;-67
2021/04/30 02:25:37;;;;;;;2.30;2.10;;;17.60;51.70;;;;;;5054421;28;20166;-68
2021/04/30 02:28:03;;;;;;;1.85;1.70;;;17.50;51.70;;;;;;5054817;28;20202;-66
2021/04/30 02:30:30;;;;;;;1.85;1.75;;;17.50;51.70;;;;;;5071463;28;20597;-71
2021/04/30 02:32:55;;;;;;;1.98;1.73;;;17.50;51.70;;;;;;5054771;28;20260;-64
2021/04/30 02:35:32;;;;;;;2.85;2.03;;;17.50;51.70;;;;;;5054523;28;20622;-64
2021/04/30 02:37:58;;;;;;;2.42;1.60;;;17.50;51.70;;;;;;5071956;28;20166;-66
2021/04/30 02:40:26;;;;;;;2.78;1.90;;;17.50;51.70;;;;;;5072428;28;20219;-67
2021/04/30 02:42:54;;;;;;;2.53;1.70;;;17.50;51.70;;;;;;5054614;28;20732;-67
2021/04/30 02:45:20;;;;;;;2.53;1.92;;;17.50;51.80;;;;;;5054414;28;20171;-67
2021/04/30 02:47:47;;;;;;;2.95;1.92;;;17.50;51.70;;;;;;5054304;28;20186;-66
2021/04/30 02:50:14;;;;;;;2.00;1.80;;;17.50;51.70;;;;;;5054541;28;20215;-74
2021/04/30 02:52:40;;;;;;;2.15;1.67;;;17.50;51.80;;;;;;5053575;28;20170;-72
2021/04/30 02:55:06;;;;;;;2.45;2.25;;;17.50;51.80;;;;;;5072757;28;20175;-66
2021/04/30 02:57:33;;;;;;;2.38;1.83;;;17.50;51.70;;;;;;5076125;28;20173;-68
2021/04/30 02:59:59;;;;;;;2.88;2.10;;;17.50;51.70;;;;;;5075475;28;20173;-68
2021/04/30 03:02:25;;;;;;;2.40;2.05;;;17.40;51.70;;;;;;5058290;28;20221;-66
2021/04/30 03:04:50;;;;;;;1.88;1.67;;;17.40;51.70;;;;;;5075339;28;20198;-67
2021/04/30 03:07:16;;;;;;;2.25;2.03;;;17.50;51.80;;;;;;5058115;28;20170;-65
2021/04/30 03:09:41;;;;;;;3.22;1.90;;;17.40;51.70;;;;;;5075466;28;20624;-67
2021/04/30 03:12:07;;;;;;;2.40;2.00;;;17.40;51.70;;;;;;5057648;28;20238;-67
2021/04/30 03:14:33;;;;;;;2.15;1.90;;;17.40;51.70;;;;;;5075609;28;20166;-71
2021/04/30 03:16:58;;;;;;;1.83;1.73;;;17.40;51.70;;;;;;5057691;28;20175;-67
2021/04/30 03:19:24;;;;;;;2.53;1.85;;;17.40;51.70;;;;;;5057475;28;20159;-67
2021/04/30 03:21:50;;;;;;;2.55;2.10;;;17.40;51.80;;;;;;5057862;28;20174;-68
2021/04/30 03:24:15;;;;;;;2.55;2.10;;;17.40;51.70;;;;;;5075635;28;20174;-72
2021/04/30 03:26:41;;;;;;;3.35;2.03;;;17.40;51.80;;;;;;5074771;28;20202;-71
2021/04/30 03:29:06;;;;;;;2.30;2.05;;;17.40;51.80;;;;;;5075639;28;20210;-71
2021/04/30 03:31:32;;;;;;;2.13;1.90;;;17.40;51.80;;;;;;5075061;28;20567;-65
2021/04/30 03:33:58;;;;;;;2.05;1.75;;;17.40;51.80;;;;;;5074847;28;20174;-65
2021/04/30 03:36:23;;;;;;;2.35;2.05;;;17.30;51.70;;;;;;5057505;28;20177;-65
2021/04/30 03:38:49;;;;;;;2.03;1.83;;;17.30;51.70;;;;;;5057359;28;20167;-67
2021/04/30 03:41:15;;;;;;;2.00;1.90;;;17.40;51.80;;;;;;5057023;28;20163;-67
2021/04/30 03:43:41;;;;;;;2.47;1.83;;;17.30;51.70;;;;;;5057180;28;20181;-69
2021/04/30 03:46:06;;;;;;;1.75;1.65;;;17.30;51.80;;;;;;5057441;28;20249;-74
2021/04/30 03:48:32;;;;;;;2.60;2.00;;;17.40;51.80;;;;;;5056230;28;20348;-68
2021/04/30 03:50:58;;;;;;;2.28;2.08;;;17.30;51.70;;;;;;5057468;28;20170;-66
2021/04/30 03:53:24;;;;;;;2.60;1.90;;;17.30;51.70;;;;;;5057373;28;20644;-66
2021/04/30 03:55:49;;;;;;;3.40;2.05;;;17.30;51.80;;;;;;5074158;28;20245;-67
2021/04/30 03:58:15;;;;;;;1.80;1.70;;;17.30;51.80;;;;;;5057269;28;20265;-68
2021/04/30 04:00:41;;;;;;;2.33;1.98;;;17.30;51.80;;;;;;5074685;28;20686;-67
2021/04/30 04:03:06;;;;;;;2.10;1.90;;;17.30;51.80;;;;;;5074373;28;20220;-67
2021/04/30 04:05:32;;;;;;;2.20;1.85;;;17.30;51.80;;;;;;5039898;28;20174;-66
2021/04/30 04:07:57;;;;;;;2.63;2.25;;;17.30;51.80;;;;;;5056365;28;20237;-65
2021/04/30 04:10:23;;;;;;;2.05;1.85;;;17.30;51.80;;;;;;5074314;28;20181;-67
2021/04/30 04:12:48;;;;;;;2.33;2.03;;;17.30;51.80;;;;;;5056619;28;20641;-67
2021/04/30 04:15:16;;;;;;;2.83;2.03;;;17.20;51.70;;;;;;5074087;28;20178;-67
2021/04/30 04:17:41;;;;;;;2.10;1.85;;;17.30;51.80;;;;;;5056872;28;20196;-69
2021/04/30 04:20:07;;;;;;;2.17;1.98;;;17.20;51.70;;;;;;5056692;28;20223;-68
2021/04/30 04:22:33;;;;;;;3.33;2.08;;;17.30;51.80;;;;;;5055908;28;20178;-71
2021/04/30 04:24:59;;;;;;;3.28;2.05;;;17.30;51.80;;;;;;5056723;28;20648;-68
2021/04/30 04:27:24;;;;;;;2.67;1.80;;;17.20;51.80;;;;;;5056629;28;20166;-67
2021/04/30 04:29:50;;;;;;;3.28;2.25;;;17.20;51.70;;;;;;5038930;28;20206;-65
2021/04/30 04:32:15;;;;;;;2.35;1.67;;;17.20;51.80;;;;;;5056431;28;20275;-64
2021/04/30 04:34:41;;;;;;;2.47;2.10;;;17.20;51.80;;;;;;5073858;28;20536;-71
2021/04/30 04:37:07;;;;;;;2.28;2.08;;;17.20;51.70;;;;;;5055961;28;20177;-66
2021/04/30 04:39:32;;;;;;;2.85;2.15;;;17.20;51.80;;;;;;5073907;28;20167;-67
2021/04/30 04:42:02;;;;;;;2.33;2.13;;;17.20;51.80;;;;;;5039679;28;20544;-69
2021/04/30 04:44:28;;;;;;;2.90;2.20;;;17.20;51.80;;;;;;5038623;28;20656;-70
2021/04/30 04:46:54;;;;;;;2.95;2.17;;;17.20;51.80;;;;;;5074125;28;20174;-67
2021/04/30 04:49:20;;;;;;;2.92;1.80;;;17.20;51.80;;;;;;5056114;28;20194;-71
2021/04/30 04:51:45;;;;;;;2.38;2.17;;;17.20;51.80;;;;;;5055218;28;20174;-67
2021/04/30 04:54:11;;;;;;;3.42;2.50;;;17.20;51.80;;;;;;5073857;28;20556;-67
2021/04/30 04:56:36;;;;;;;2.22;2.03;;;17.20;51.80;;;;;;5055978;28;20182;-68
2021/04/30 04:59:02;;;;;;;2.92;2.05;;;17.20;51.80;;;;;;5073204;28;20179;-68
2021/04/30 05:01:28;;;;;;;2.13;1.90;;;17.20;51.80;;;;;;5055885;28;20169;-67
2021/04/30 05:03:54;;;;;;;2.97;2.00;;;17.20;51.80;;;;;;5073695;28;20246;-66
2021/04/30 05:06:19;;;;;;;2.65;1.98;;;17.20;51.80;;;;;;5073097;28;20171;-65
2021/04/30 05:08:45;;;;;;;2.47;2.20;;;17.30;51.90;;;;;;5055397;28;20263;-67
2021/04/30 05:11:10;;;;;;;2.75;1.70;;;17.30;51.80;;;;;;5055866;28;20227;-70
2021/04/30 05:13:36;;;;;;;1.92;1.83;;;17.40;51.60;;;;;;5072619;28;20174;-67
2021/04/30 05:16:02;;;;;;;2.38;1.90;;;17.50;51.60;;;;;;5055584;28;20175;-67
2021/04/30 05:18:28;;;;;;;2.10;1.70;;;17.60;51.50;;;;;;5054534;28;20178;-68
2021/04/30 05:20:54;;;;;;;3.30;1.90;;;17.70;51.50;;;;;;5055516;28;20178;-67
2021/04/30 05:23:20;;;;;;;2.33;1.98;;;17.80;51.40;;;;;;5055571;28;20193;-68
2021/04/30 05:25:46;;;;;;;2.00;1.77;;;17.90;51.20;;;;;;5054612;28;20659;-68
2021/04/30 05:28:12;;;;;;;4.00;2.15;;;18.00;51.00;;;;;;5055373;28;20232;-66
2021/04/30 05:30:37;;;;;;;3.47;2.35;;;18.10;50.80;;;;;;5055049;28;20226;-65
2021/04/30 05:33:03;;;;;;;2.20;2.00;;;18.20;50.70;;;;;;5054791;28;20190;-64
2021/04/30 05:35:29;;;;;;;2.25;1.83;;;18.20;50.70;;;;;;5055056;28;20182;-64
2021/04/30 05:37:55;;;;;;;2.05;1.90;;;18.30;50.60;;;;;;5055265;28;20170;-68
2021/04/30 05:40:20;;;;;;;4.60;2.00;;;18.20;50.50;;;;;;5072542;28;20170;-66
2021/04/30 05:42:46;;;;;;;2.55;1.67;;;18.20;50.60;;;;;;5055027;28;20171;-67
2021/04/30 05:45:12;;;;;;;2.20;2.00;;;18.20;50.60;;;;;;5072957;28;20718;-67
2021/04/30 05:47:38;;;;;;;2.67;1.92;;;18.10;50.70;;;;;;5054168;28;20166;-70
2021/04/30 05:50:05;;;;;;;3.65;2.10;;;18.10;50.70;;;;;;5055176;28;20239;-66
2021/04/30 05:52:30;;;;;;;3.13;1.92;;;18.10;50.80;;;;;;5054819;28;20763;-66
2021/04/30 05:54:56;;;;;;;3.00;1.70;;;18.20;50.80;;;;;;5054532;28;20190;-71
2021/04/30 05:57:21;;;;;;;2.30;1.60;;;18.20;50.70;;;;;;5055167;28;20182;-67
2021/04/30 05:59:47;;;;;;;2.10;1.88;;;18.20;50.70;;;;;;5072631;28;20732;-66
2021/04/30 06:02:12;;;;;;;2.05;1.85;;;18.20;51.30;;;;;;5054366;28;20169;-65
2021/04/30 06:04:38;;;;;;;2.17;1.70;;;18.20;50.60;;;;;;5072426;28;20507;-65
2021/04/30 06:07:04;;;;;;;2.20;1.98;;;18.10;50.70;;;;;;5054955;28;20170;-65
2021/04/30 06:09:29;;;;;;;2.70;1.90;;;18.10;51.40;;;;;;5054011;28;20681;-67
2021/04/30 06:11:55;;;;;;;3.00;2.03;;;18.10;50.80;;;;;;5072727;28;20181;-67
2021/04/30 06:14:22;;;;;;;3.35;1.90;;;18.00;50.90;;;;;;5072812;28;20198;-67
2021/04/30 06:16:47;;;;;;;2.13;1.90;;;18.00;50.90;;;;;;5054180;28;20701;-67
2021/04/30 06:19:13;;;;;;;2.72;2.05;;;17.90;51.00;;;;;;5072867;28;20174;-68
2021/04/30 06:21:38;;;;;;;2.75;2.15;;;17.90;51.10;;;;;;5054489;28;20170;-68
2021/04/30 06:24:05;;;;;;;1.85;1.55;;;17.80;51.00;;;;;;5054238;28;20171;-68
2021/04/30 06:26:30;;;;;;;2.25;1.70;;;17.80;51.10;;;;;;5054375;28;20198;-67
2021/04/30 06:28:56;;;;;;;2.38;1.75;;;17.80;51.20;;;;;;5071909;28;20245;-66
2021/04/30 06:31:22;;;;;;;1.95;1.75;;;17.80;51.30;;;;;;5076765;28;20301;-72
2021/04/30 06:33:49;;;;;;;1.85;1.67;;;17.70;51.30;;;;;;5076359;28;20223;-65
2021/04/30 06:36:14;;;;;;;2.15;1.67;;;17.70;51.30;;;;;;5058098;28;20170;-64
2021/04/30 06:38:40;;;;;;;2.50;2.25;;;17.70;51.40;;;;;;5076083;28;20578;-65
2021/04/30 06:41:05;;;;;;;3.17;1.90;;;17.70;51.50;;;;;;5058521;28;20249;-68
2021/04/30 06:43:31;;;;;;;3.33;1.95;;;17.80;51.50;;;;;;5057543;28;20178;-71
2021/04/30 06:45:56;;;;;;;3.42;2.00;;;17.80;51.60;;;;;;5058604;28;20224;-69
2021/04/30 06:48:23;;;;;;;2.58;2.03;;;17.80;51.70;;;;;;5076330;28;20705;-67
2021/04/30 06:50:49;;;;;;;3.00;2.00;;;17.80;51.60;;;;;;5075308;28;20262;-68
2021/04/30 06:53:14;;;;;;;3.72;2.10;;;17.80;51.70;;;;;;5058463;28;20194;-68
2021/04/30 06:55:40;;;;;;;2.35;2.03;;;17.80;51.70;;;;;;5075768;28;20192;-68
2021/04/30 06:58:05;;;;;;;2.40;2.10;;;17.80;51.80;;;;;;5057733;28;20182;-70
2021/04/30 07:00:31;;;;;;;4.15;1.98;;;17.80;51.90;;;;;;5075909;28;20169;-68
2021/04/30 07:02:56;;;;;;;3.38;2.00;;;17.80;51.90;;;;;;5058177;28;20614;-67
2021/04/30 07:05:22;;;;;;;1.80;1.70;;;17.80;52.60;;;;;;5057427;28;20166;-67
2021/04/30 07:07:48;;;;;;;2.22;1.92;;;17.80;51.90;;;;;;5075749;28;20179;-67
2021/04/30 07:10:13;;;;;;;1.95;1.77;;;17.80;51.90;;;;;;5057985;28;20657;-69
2021/04/30 07:12:39;;;;;;;2.78;2.17;;;17.80;52.00;;;;;;5075024;28;20163;-69
2021/04/30 07:15:08;;;;;;;3.67;2.40;;;17.80;52.10;;;;;;5075612;28;20181;-68
2021/04/30 07:17:34;;;;;;;2.38;2.10;;;17.80;52.10;;;;;;5075404;28;20171;-67
2021/04/30 07:20:00;;;;;;;5.90;2.45;;;17.80;52.00;;;;;;5057359;28;20171;-68
2021/04/30 07:22:25;;;;;;;4.80;2.33;;;17.70;52.10;;;;;;5057768;28;20174;-67
2021/04/30 07:24:51;;;;;;;3.92;2.45;;;17.70;52.20;;;;;;5057495;28;20167;-66
2021/04/30 07:27:19;;;;;;;3.72;2.55;;;17.80;52.10;;;;;;5056979;28;20539;-64
2021/04/30 07:29:45;;;;;;;4.95;2.60;;;17.80;52.80;;;;;;5075212;28;20213;-65
2021/04/30 07:32:11;;;;;;;4.97;2.35;;;17.80;52.70;;;;;;5056799;28;20215;-65
2021/04/30 07:34:37;;;;;;;4.70;2.60;;;17.80;52.20;;;;;;5075050;28;20685;-67
2021/04/30 07:37:03;;;;;;;5.45;2.88;;;17.80;52.20;;;;;;5057760;28;20661;-68
2021/04/30 07:39:28;;;;;;;4.07;2.70;;;17.70;52.20;;;;;;5074395;28;20209;-73
2021/04/30 07:41:54;;;;;;;5.35;3.03;;;17.70;52.30;;;;;;5056715;28;20280;-68
2021/04/30 07:44:19;;;;;;;5.43;3.55;;;17.70;52.30;;;;;;5057446;28;20173;-68
2021/04/30 07:46:45;;;;;;;4.40;3.10;;;17.60;52.20;;;;;;5074439;28;20171;-66
2021/04/30 07:49:11;;;;;;;3.42;2.92;;;17.60;52.20;;;;;;5057384;28;20210;-65
2021/04/30 07:51:39;;;;;;;5.18;3.40;;;17.60;52.30;;;;;;5057013;28;20619;-62
2021/04/30 07:54:05;;;;;;;5.50;3.35;;;17.60;52.30;;;;;;5056653;28;20190;-68
2021/04/30 07:56:31;;;;;;;5.45;2.97;;;17.60;52.30;;;;;;5056997;28;20170;-69
2021/04/30 07:58:56;;;;;;;5.65;3.17;;;17.70;52.80;;;;;;5057030;28;20269;-70
2021/04/30 08:01:22;;;;;;;4.50;3.13;;;17.60;52.30;;;;;;5074497;28;20174;-72
2021/04/30 08:03:47;;;;;;;4.13;3.30;;;17.70;52.30;;;;;;5076384;28;20206;-72
2021/04/30 08:06:13;;;;;;;5.18;3.50;;;17.70;52.20;;;;;;5094285;28;20275;-70
2021/04/30 08:08:40;;;;;;;4.65;3.28;;;17.70;52.10;;;;;;5093705;28;20689;-68
2021/04/30 08:11:06;;;;;;;4.30;3.40;;;17.70;52.20;;;;;;5095169;28;20170;-68
2021/04/30 08:13:32;;;;;;;5.88;3.47;;;17.70;52.30;;;;;;5094623;28;20276;-70
2021/04/30 08:15:58;;;;;;;6.32;3.40;;;17.70;52.20;;;;;;5094245;28;20665;-68
2021/04/30 08:18:23;;;;;;;5.07;3.42;;;17.70;52.50;;;;;;5076496;28;20170;-68
2021/04/30 08:20:49;;;;;;;3.95;3.55;;;17.60;52.50;;;;;;5094480;28;20197;-68
2021/04/30 08:23:15;;;;;;;4.80;3.30;;;17.60;53.20;;;;;;5076288;28;20166;-67
2021/04/30 08:25:40;;;;;;;6.25;4.05;;;17.60;52.60;;;;;;5094381;28;20598;-67
2021/04/30 08:28:06;;;;;;;6.68;3.78;;;17.50;52.60;;;;;;5094682;28;20222;-68
2021/04/30 08:30:31;;;;;;;8.32;4.03;;;17.50;52.60;;;;;;5093489;28;20226;-69
2021/04/30 08:32:57;;;;;;;4.95;3.72;;;17.50;52.60;;;;;;5076848;28;20792;-70
2021/04/30 08:35:23;;;;;;;5.45;3.50;;;17.50;52.60;;;;;;5094272;28;20234;-70
2021/04/30 08:37:49;;;;;;;7.13;4.28;;;17.50;52.50;;;;;;5093706;28;20253;-68
2021/04/30 08:40:14;;;;;;;6.75;4.43;;;17.60;52.50;;;;;;5059631;28;20174;-68
2021/04/30 08:42:40;;;;;;;4.55;3.40;;;17.60;52.40;;;;;;5073525;28;20208;-66
2021/04/30 08:45:07;;;;;;;5.70;3.90;;;17.70;52.50;;;;;;5093989;28;20226;-68
2021/04/30 08:47:35;;;;;;;5.90;3.63;;;17.60;52.50;;;;;;5075857;28;20640;-68
2021/04/30 08:50:02;;;;;;;7.47;3.70;;;17.70;52.50;;;;;;5075453;28;20198;-68
2021/04/30 08:52:28;;;;;;;8.05;4.40;;;17.70;52.40;;;;;;5093779;28;20174;-67
2021/04/30 08:54:54;;;;;;;8.55;4.35;;;17.60;52.50;;;;;;5059237;28;20532;-67
2021/04/30 08:57:25;;;;;;;5.25;4.20;;;17.70;52.40;;;;;;5058896;28;20542;-67
2021/04/30 09:00:00;;;;;;;5.88;4.00;;;17.70;52.40;;;;;;5060480;28;20174;-68
2021/04/30 09:02:30;;;;;;;7.22;3.78;;;17.70;52.40;;;;;;5042783;28;20173;-67
2021/04/30 09:04:56;;;;;;;8.20;4.82;;;17.70;52.50;;;;;;5059424;28;20165;-68
2021/04/30 09:07:24;;;;;;;7.43;4.50;;;17.70;52.50;;;;;;5059223;28;20170;-69
2021/04/30 09:09:59;;;;;;;5.65;4.60;;;17.70;52.60;;;;;;5075794;28;20661;-68
2021/04/30 09:12:25;;;;;;;6.60;4.28;;;17.70;52.50;;;;;;5093229;28;20234;-68
2021/04/30 09:14:50;;;;;;;7.00;4.57;;;17.70;52.60;;;;;;5058781;28;20170;-68
2021/04/30 09:17:17;;;;;;;6.00;4.15;;;17.60;52.60;;;;;;5075711;28;20286;-68
2021/04/30 09:19:56;;;;;;;8.32;4.80;;;17.60;52.60;;;;;;5074841;28;20540;-67
2021/04/30 09:22:25;;;;;;;5.90;3.83;;;17.60;52.60;;;;;;5093714;28;20173;-67
2021/04/30 09:24:52;;;;;;;6.95;4.38;;;17.60;52.70;;;;;;5074585;28;20162;-66
2021/04/30 09:27:35;;;;;;;8.05;3.92;;;17.60;52.70;;;;;;5093520;28;20156;-68
2021/04/30 09:30:30;;;;;;;8.00;4.00;;;17.60;52.80;;;;;;5075390;28;20250;-69
2021/04/30 09:33:03;;;;;;;8.70;3.97;;;17.60;52.80;;;;;;5060122;28;20606;-70
2021/04/30 09:35:29;;;;;;;6.18;3.90;;;17.60;52.70;;;;;;5075318;28;20162;-69
2021/04/30 09:37:57;;;;;;;3.97;3.58;;;17.60;52.70;;;;;;5075563;28;20169;-68
2021/04/30 09:40:33;;;;;;;6.03;4.15;;;17.60;52.70;;;;;;5092754;28;20192;-68
2021/04/30 09:43:06;;;;;;;5.03;3.50;;;17.60;52.70;;;;;;5076015;28;20169;-68
2021/04/30 09:45:33;;;;;;;6.57;3.70;;;17.60;52.70;;;;;;5057902;28;20264;-68
2021/04/30 09:48:02;;;;;;;5.57;3.95;;;17.60;52.60;;;;;;5058027;28;20176;-68
2021/04/30 09:50:28;;;;;;;5.35;4.57;;;17.60;52.60;;;;;;5074830;28;20172;-68
2021/04/30 09:52:55;;;;;;;4.63;4.13;;;17.70;52.60;;;;;;5074329;28;20182;-68
2021/04/30 09:55:21;;;;;;;7.97;4.22;;;17.70;52.60;;;;;;5075193;28;20170;-67
2021/04/30 09:57:48;;;;;;;7.40;3.80;;;17.70;52.70;;;;;;5092677;28;20223;-68
2021/04/30 10:00:14;;;;;;;8.20;4.22;;;17.70;52.60;;;;;;5092371;28;20166;-68
2021/04/30 10:02:40;;;;;;;5.60;3.92;;;17.70;52.50;;;;;;5057948;28;20166;-68
2021/04/30 10:05:10;;;;;;;4.63;3.55;;;17.70;52.50;;;;;;5092526;28;20640;-69
2021/04/30 10:07:37;;;;;;;7.10;4.50;;;17.80;52.50;;;;;;5074462;28;20173;-68
2021/04/30 10:10:15;;;;;;;5.93;4.20;;;17.80;52.50;;;;;;5074754;28;20595;-69
2021/04/30 10:12:42;;;;;;;6.32;3.78;;;17.80;52.50;;;;;;5074698;28;20170;-67
2021/04/30 10:15:10;;;;;;;5.32;3.90;;;17.80;52.60;;;;;;5057417;28;20192;-67
2021/04/30 10:17:36;;;;;;;5.90;4.05;;;17.80;52.60;;;;;;5060981;28;20617;-64
2021/04/30 10:20:03;;;;;;;6.20;3.72;;;17.80;52.60;;;;;;5078569;28;20261;-65
2021/04/30 10:22:28;;;;;;;8.70;4.15;;;17.80;52.50;;;;;;5074170;28;20189;-71
2021/04/30 10:24:57;;;;;;;6.50;4.22;;;17.80;52.80;;;;;;5092605;28;20161;-71
2021/04/30 10:27:27;;;;;;;5.60;3.67;;;17.90;52.90;;;;;;5074842;28;20589;-70
2021/04/30 10:30:04;;;;;;;5.05;3.88;;;18.00;52.90;;;;;;5056819;28;20299;-70
2021/04/30 10:32:33;;;;;;;8.27;4.60;;;18.20;52.80;;;;;;5075785;28;20626;-68
2021/04/30 10:35:00;;;;;;;5.68;3.85;;;18.30;52.60;;;;;;5057765;28;20173;-68
2021/04/30 10:37:29;;;;;;;8.23;3.50;;;18.40;52.50;;;;;;5058082;28;20291;-69
2021/04/30 10:39:56;;;;;;;3.20;2.90;;;18.60;52.20;;;;;;5058352;28;20693;-69
2021/04/30 10:42:26;;;;;;;4.70;3.60;;;18.90;51.60;;;;;;5074138;28;20182;-71
2021/04/30 10:44:58;;;;;;;5.63;3.42;;;19.30;51.00;;;;;;5058002;28;20162;-71
2021/04/30 10:47:24;;;;;;;3.97;2.92;;;19.60;50.40;;;;;;5074783;28;20209;-70
2021/04/30 10:50:10;;;;;;;6.28;3.53;;;19.90;49.90;;;;;;5057150;28;20206;-69
2021/04/30 10:52:35;;;;;;;4.80;3.22;;;20.20;49.40;;;;;;5054364;28;20167;-70
2021/04/30 10:55:17;;;;;;;10.77;3.50;;;20.40;49.10;;;;;;5054462;28;20170;-71
2021/04/30 10:57:47;;;;;;;5.20;3.13;;;20.50;48.90;;;;;;5054993;28;20159;-71
2021/04/30 11:00:13;;;;;;;6.32;3.38;;;20.60;48.70;;;;;;5054343;28;20163;-71
2021/04/30 11:02:39;;;;;;;7.15;3.25;;;20.60;48.70;;;;;;5037548;28;20545;-71
2021/04/30 11:05:05;;;;;;;6.47;3.15;;;20.70;48.70;;;;;;5071535;28;20174;-71
2021/04/30 11:07:39;;;;;;;5.05;3.10;;;20.70;48.70;;;;;;5071943;28;20167;-69
2021/04/30 11:13:04;;;;;;;4.10;2.92;;;20.60;48.60;;;;;;5071884;28;20198;-67
2021/04/30 11:15:31;;;;;;;5.35;2.97;;;20.50;48.70;;;;;;5054875;28;20189;-67
2021/04/30 11:17:57;;;;;;;3.72;2.88;;;20.30;48.90;;;;;;5039900;28;20656;-66
2021/04/30 11:20:32;;;;;;;5.82;2.83;;;20.30;49.00;;;;;;5075704;28;20211;-66
2021/04/30 11:23:23;;;;;;;4.38;2.85;;;20.10;49.30;;;;;;5058119;28;20180;-66
2021/04/30 11:26:05;;;;;;;5.43;2.95;;;20.00;49.50;;;;;;5074714;28;20222;-66
2021/04/30 11:28:31;;;;;;;4.25;2.85;;;19.80;49.70;;;;;;5075340;28;20208;-68
2021/04/30 11:31:03;;;;;;;5.03;2.63;;;19.70;49.90;;;;;;5057493;28;20214;-70
2021/04/30 11:33:29;;;;;;;4.15;2.95;;;19.60;50.10;;;;;;5056886;28;20755;-68
2021/04/30 11:35:55;;;;;;;3.35;2.92;;;19.50;50.20;;;;;;5075294;28;20253;-68
2021/04/30 11:38:40;;;;;;;4.07;2.58;;;19.40;50.30;;;;;;5057064;28;20253;-68
2021/04/30 11:41:06;;;;;;;3.42;3.00;;;19.40;50.30;;;;;;5057602;28;20166;-67
2021/04/30 11:43:32;;;;;;;3.60;3.17;;;19.40;50.50;;;;;;5057220;28;20163;-66
2021/04/30 11:45:58;;;;;;;3.72;2.92;;;19.30;50.40;;;;;;5040115;28;20261;-66
2021/04/30 11:48:27;;;;;;;4.68;3.20;;;19.30;50.50;;;;;;5057426;28;20198;-66
2021/04/30 11:51:02;;;;;;;4.47;2.75;;;19.20;50.60;;;;;;5060387;28;20183;-66
2021/04/30 11:53:28;;;;;;;4.15;2.83;;;19.20;50.70;;;;;;5076514;28;20169;-65
2021/04/30 11:55:54;;;;;;;4.60;3.10;;;19.20;50.80;;;;;;5077193;28;20170;-66
2021/04/30 11:58:20;;;;;;;3.72;3.03;;;19.10;50.90;;;;;;5095372;28;20290;-66
2021/04/30 12:00:55;;;;;;;5.88;2.55;;;19.20;50.90;;;;;;5059626;28;20249;-66
2021/04/30 12:03:21;;;;;;;3.25;2.90;;;19.20;50.70;;;;;;5077275;28;20207;-66
2021/04/30 12:05:47;;;;;;;4.20;2.88;;;19.30;50.70;;;;;;5094731;28;20162;-67
2021/04/30 12:08:12;;;;;;;2.83;2.58;;;19.40;50.60;;;;;;5094400;28;20198;-67
2021/04/30 12:10:38;;;;;;;4.03;2.90;;;19.40;50.30;;;;;;5076654;28;20177;-66
2021/04/30 12:13:07;;;;;;;4.47;3.03;;;19.60;50.20;;;;;;5095062;28;20177;-66
2021/04/30 12:15:33;;;;;;;3.15;2.40;;;19.60;50.10;;;;;;5076595;28;20645;-65
2021/04/30 12:17:58;;;;;;;3.00;2.70;;;19.70;50.00;;;;;;5095085;28;20169;-65
2021/04/30 12:20:25;;;;;;;3.22;2.40;;;19.80;49.90;;;;;;5076851;28;20656;-65
2021/04/30 12:22:58;;;;;;;4.18;2.72;;;19.80;49.80;;;;;;5042762;28;20706;-66
2021/04/30 12:25:26;;;;;;;2.80;2.60;;;19.90;49.70;;;;;;5068433;28;20178;-65
2021/04/30 12:27:52;;;;;;;3.53;2.85;;;19.90;49.70;;;;;;5061245;28;20794;-65
2021/04/30 12:30:31;;;;;;;3.25;2.60;;;19.90;49.70;;;;;;5094500;28;20220;-66
2021/04/30 12:32:57;;;;;;;2.80;2.33;;;19.80;49.80;;;;;;5064170;28;20178;-67
2021/04/30 12:35:23;;;;;;;3.00;2.50;;;19.80;49.90;;;;;;5055866;28;20253;-67
2021/04/30 12:37:48;;;;;;;3.45;2.38;;;19.80;50.00;;;;;;5056256;28;20312;-67
2021/04/30 12:40:14;;;;;;;2.60;2.40;;;19.70;50.10;;;;;;5041952;28;20174;-67
2021/04/30 12:42:50;;;;;;;3.97;2.60;;;19.70;50.10;;;;;;5042299;28;20231;-69
2021/04/30 12:45:16;;;;;;;4.55;2.88;;;19.70;50.10;;;;;;5094284;28;20165;-69
2021/04/30 12:47:42;;;;;;;2.83;2.55;;;19.70;50.20;;;;;;5059302;28;20162;-67
2021/04/30 12:50:10;;;;;;;4.63;2.47;;;19.70;50.10;;;;;;5075619;28;20213;-66
2021/04/30 12:52:36;;;;;;;4.30;3.00;;;19.80;50.00;;;;;;5039010;28;20182;-67
2021/04/30 12:55:26;;;;;;;4.13;2.78;;;19.90;50.00;;;;;;5056339;28;20170;-68
2021/04/30 12:58:06;;;;;;;4.05;2.70;;;19.90;50.00;;;;;;5054732;28;20205;-69
2021/04/30 13:00:46;;;;;;;3.88;2.65;;;19.90;50.00;;;;;;5073625;28;20170;-68
2021/04/30 13:03:15;;;;;;;5.38;2.70;;;20.00;50.00;;;;;;5038591;28;20265;-70
2021/04/30 13:05:40;;;;;;;2.65;2.45;;;19.90;50.10;;;;;;5073347;28;20579;-67
2021/04/30 13:08:06;;;;;;;3.25;2.60;;;19.90;50.20;;;;;;5073936;28;20166;-69
2021/04/30 13:10:32;;;;;;;4.53;2.50;;;19.80;50.30;;;;;;5071078;28;20178;-67
2021/04/30 13:13:04;;;;;;;2.65;2.35;;;19.80;50.40;;;;;;5072350;28;20193;-67